createdAt,value
2018-12-24T00:01:08.202Z,87.74
2018-12-24T00:03:15.157Z,86.92
2018-12-24T00:05:21.413Z,85.97
2018-12-24T00:07:27.686Z,85.72
2018-12-24T00:09:33.881Z,85.54
2018-12-24T00:11:40.831Z,84.94
2018-12-24T00:13:47.061Z,84.33
2018-12-24T00:15:53.183Z,84.55
2018-12-24T00:17:59.752Z,85.39
2018-12-24T00:20:05.979Z,85.56
2018-12-24T00:22:12.406Z,85.85
2018-12-24T00:24:18.650Z,85.81
2018-12-24T00:26:26.416Z,85.37
2018-12-24T00:28:32.613Z,85.93
2018-12-24T00:30:38.761Z,86.18
2018-12-24T00:32:45.019Z,86.45
2018-12-24T00:34:51.434Z,86.26
2018-12-24T00:36:57.631Z,86.23
2018-12-24T00:39:05.230Z,86.32
2018-12-24T00:41:12.102Z,86.17
2018-12-24T00:43:19.032Z,86.06
2018-12-24T00:45:25.702Z,85.49
2018-12-24T00:47:33.136Z,85.34
2018-12-24T00:49:39.357Z,85.80
2018-12-24T00:51:46.168Z,86.09
2018-12-24T00:53:53.262Z,85.94
2018-12-24T00:55:59.911Z,86.01
2018-12-24T00:58:06.396Z,85.48
2018-12-24T01:00:12.883Z,85.86
2018-12-24T01:02:19.140Z,85.90
2018-12-24T01:04:26.249Z,85.74
2018-12-24T01:06:35.120Z,85.84
2018-12-24T01:08:41.570Z,85.93
2018-12-24T01:10:48.316Z,86.20
2018-12-24T01:12:54.599Z,86.30
2018-12-24T01:15:01.272Z,86.47
2018-12-24T01:17:07.534Z,86.02
2018-12-24T01:19:13.687Z,85.94
2018-12-24T01:21:20.937Z,85.99
2018-12-24T01:23:27.588Z,86.15
2018-12-24T01:25:34.555Z,86.31
2018-12-24T01:27:41.029Z,86.29
2018-12-24T01:29:48.053Z,86.00
2018-12-24T01:31:59.271Z,85.75
2018-12-24T01:34:05.461Z,86.08
2018-12-24T01:36:11.942Z,85.98
2018-12-24T01:38:18.161Z,86.15
2018-12-24T01:40:30.155Z,86.06
2018-12-24T01:42:36.309Z,86.29
2018-12-24T01:44:42.516Z,86.16
2018-12-24T01:46:51.802Z,85.28
2018-12-24T01:48:59.964Z,85.29
2018-12-24T01:51:06.118Z,85.40
2018-12-24T01:53:12.692Z,85.57
2018-12-24T01:55:18.792Z,85.47
2018-12-24T01:57:25.130Z,84.69
2018-12-24T01:59:31.291Z,85.17
2018-12-24T02:01:37.595Z,85.62
2018-12-24T02:03:43.898Z,84.93
2018-12-24T02:05:50.456Z,85.09
2018-12-24T02:07:56.640Z,85.86
2018-12-24T02:10:03.224Z,86.34
2018-12-24T02:12:09.919Z,86.71
2018-12-24T02:14:16.175Z,86.97
2018-12-24T02:16:22.779Z,86.76
2018-12-24T02:18:29.031Z,86.81
2018-12-24T02:20:35.283Z,86.96
2018-12-24T02:22:42.197Z,86.61
2018-12-24T02:24:48.590Z,86.60
2018-12-24T02:26:54.791Z,86.54
2018-12-24T02:29:01.007Z,86.61
2018-12-24T02:31:07.336Z,86.69
2018-12-24T02:33:13.888Z,86.54
2018-12-24T02:35:20.247Z,86.38
2018-12-24T02:37:26.450Z,86.38
2018-12-24T02:39:32.986Z,86.27
2018-12-24T02:41:39.150Z,86.30
2018-12-24T02:43:45.277Z,86.56
2018-12-24T02:45:51.429Z,86.61
2018-12-24T02:47:57.529Z,86.30
2018-12-24T02:50:03.954Z,86.28
2018-12-24T02:52:10.598Z,86.61
2018-12-24T02:54:16.808Z,86.76
2018-12-24T02:56:22.965Z,86.80
2018-12-24T02:58:29.186Z,86.56
2018-12-24T03:00:37.373Z,86.37
2018-12-24T03:02:43.817Z,86.20
2018-12-24T03:04:50.475Z,86.46
2018-12-24T03:06:56.610Z,86.31
2018-12-24T03:09:02.731Z,86.23
2018-12-24T03:11:08.864Z,86.17
2018-12-24T03:13:15.147Z,86.10
2018-12-24T03:15:24.006Z,86.09
2018-12-24T03:17:30.144Z,86.11
2018-12-24T03:19:36.722Z,86.17
2018-12-24T03:21:42.860Z,86.10
2018-12-24T03:23:49.049Z,85.79
2018-12-24T03:25:55.207Z,85.85
2018-12-24T03:28:01.433Z,85.89
2018-12-24T03:30:07.793Z,86.02
2018-12-24T03:32:14.327Z,86.11
2018-12-24T03:34:20.456Z,86.17
2018-12-24T03:36:26.582Z,85.91
2018-12-24T03:38:32.846Z,85.94
2018-12-24T03:40:39.119Z,85.79
2018-12-24T03:42:45.347Z,85.73
2018-12-24T03:44:51.632Z,85.59
2018-12-24T03:46:57.856Z,85.83
2018-12-24T03:49:04.502Z,85.31
2018-12-24T03:51:12.531Z,85.34
2018-12-24T03:53:21.802Z,85.10
2018-12-24T03:55:28.358Z,84.69
2018-12-24T03:57:35.882Z,84.85
2018-12-24T03:59:42.030Z,84.81
2018-12-24T04:01:48.368Z,84.93
2018-12-24T04:03:54.579Z,84.91
2018-12-24T04:06:00.844Z,85.03
2018-12-24T04:08:07.044Z,85.26
2018-12-24T04:10:13.368Z,85.25
2018-12-24T04:12:36.939Z,85.41
2018-12-24T04:14:44.639Z,85.17
2018-12-24T04:16:53.963Z,85.33
2018-12-24T04:19:00.463Z,85.40
2018-12-24T04:21:06.620Z,85.41
2018-12-24T04:23:13.455Z,84.83
2018-12-24T04:25:19.727Z,84.90
2018-12-24T04:27:27.375Z,85.26
2018-12-24T04:29:33.675Z,85.27
2018-12-24T04:31:40.109Z,84.97
2018-12-24T04:33:46.370Z,85.17
2018-12-24T04:35:53.041Z,85.32
2018-12-24T04:37:59.589Z,85.37
2018-12-24T04:40:06.004Z,85.12
2018-12-24T04:42:12.207Z,84.53
2018-12-24T04:44:18.740Z,84.60
2018-12-24T04:46:25.048Z,84.97
2018-12-24T04:48:31.470Z,83.97
2018-12-24T04:50:38.403Z,84.43
2018-12-24T04:52:45.020Z,84.76
2018-12-24T04:54:51.429Z,84.48
2018-12-24T04:56:57.582Z,84.47
2018-12-24T04:59:03.846Z,84.71
2018-12-24T05:01:09.982Z,84.31
2018-12-24T05:03:16.535Z,84.25
2018-12-24T05:05:22.849Z,84.44
2018-12-24T05:07:29.387Z,84.47
2018-12-24T05:09:35.730Z,84.25
2018-12-24T05:11:41.995Z,84.05
2018-12-24T05:13:48.455Z,84.45
2018-12-24T05:15:54.650Z,84.41
2018-12-24T05:18:01.236Z,84.28
2018-12-24T05:20:07.420Z,84.38
2018-12-24T05:22:13.713Z,84.09
2018-12-24T05:24:19.834Z,83.75
2018-12-24T05:26:26.244Z,83.56
2018-12-24T05:28:32.400Z,83.18
2018-12-24T05:30:38.556Z,83.33
2018-12-24T05:33:24.813Z,83.27
2018-12-24T05:35:49.673Z,83.73
2018-12-24T05:37:55.383Z,83.87
2018-12-24T05:40:20.086Z,83.25
2018-12-24T05:42:25.793Z,83.17
2018-12-24T05:44:31.550Z,82.74
2018-12-24T05:46:37.752Z,83.42
2018-12-24T05:48:43.473Z,83.64
2018-12-24T05:50:49.732Z,83.20
2018-12-24T05:52:55.946Z,83.39
2018-12-24T05:55:01.923Z,83.34
2018-12-24T05:57:08.124Z,83.51
2018-12-24T05:59:13.760Z,83.66
2018-12-24T06:01:19.364Z,83.55
2018-12-24T06:03:24.953Z,82.72
2018-12-24T06:05:31.004Z,82.47
2018-12-24T06:07:36.573Z,82.93
2018-12-24T06:09:43.460Z,83.63
2018-12-24T06:11:49.104Z,83.90
2018-12-24T06:13:58.048Z,83.50
2018-12-24T06:16:21.405Z,82.74
2018-12-24T06:18:27.190Z,83.19
2018-12-24T06:20:37.621Z,82.94
2018-12-24T06:22:40.644Z,83.13
2018-12-24T06:24:46.465Z,83.37
2018-12-24T06:26:52.123Z,83.44
2018-12-24T06:29:03.175Z,83.55
2018-12-24T06:31:24.394Z,83.41
2018-12-24T06:33:18.837Z,83.37
2018-12-24T06:35:45.630Z,83.15
2018-12-24T06:38:26.057Z,83.51
2018-12-24T06:40:18.915Z,83.64
2018-12-24T06:43:04.196Z,83.68
2018-12-24T06:45:50.389Z,83.77
2018-12-24T06:48:03.778Z,83.33
2018-12-24T06:50:09.476Z,83.54
2018-12-24T06:52:15.025Z,83.35
2018-12-24T06:54:20.755Z,82.67
2018-12-24T06:56:26.361Z,82.98
2018-12-24T06:58:32.332Z,83.34
2018-12-24T07:00:38.498Z,83.34
2018-12-24T07:02:47.143Z,83.33
2018-12-24T07:05:00.191Z,82.60
2018-12-24T07:07:05.739Z,82.82
2018-12-24T07:09:11.612Z,82.74
2018-12-24T07:11:17.343Z,82.65
2018-12-24T07:13:22.982Z,82.67
2018-12-24T07:15:29.494Z,82.68
2018-12-24T07:17:35.173Z,82.09
2018-12-24T07:19:40.912Z,82.38
2018-12-24T07:21:46.712Z,82.56
2018-12-24T07:23:52.948Z,82.09
2018-12-24T07:25:59.477Z,81.69
2018-12-24T07:28:08.316Z,81.99
2018-12-24T07:30:16.333Z,81.86
2018-12-24T07:32:21.996Z,81.30
2018-12-24T07:34:32.361Z,81.03
2018-12-24T07:36:35.282Z,81.14
2018-12-24T07:38:40.892Z,80.94
2018-12-24T07:40:47.100Z,80.95
2018-12-24T07:42:52.766Z,80.85
2018-12-24T07:44:58.483Z,80.70
2018-12-24T07:47:04.146Z,80.70
2018-12-24T07:49:09.878Z,80.38
2018-12-24T07:51:15.546Z,80.40
2018-12-24T07:53:21.188Z,79.84
2018-12-24T07:55:27.080Z,79.03
2018-12-24T07:57:32.821Z,79.21
2018-12-24T07:59:38.580Z,79.20
2018-12-24T08:01:44.253Z,79.31
2018-12-24T08:03:49.932Z,79.13
2018-12-24T08:05:55.659Z,78.38
2018-12-24T08:08:01.305Z,78.53
2018-12-24T08:10:07.250Z,78.36
2018-12-24T08:12:12.954Z,77.42
2018-12-24T08:14:19.033Z,77.53
2018-12-24T08:16:24.923Z,77.49
2018-12-24T08:18:30.544Z,77.40
2018-12-24T08:20:36.233Z,77.45
2018-12-24T08:22:43.103Z,78.13
2018-12-24T08:24:48.849Z,77.85
2018-12-24T08:26:54.478Z,78.29
2018-12-24T08:29:00.660Z,77.57
2018-12-24T08:31:06.648Z,78.21
2018-12-24T08:33:13.987Z,78.27
2018-12-24T08:35:21.435Z,78.30
2018-12-24T08:37:27.453Z,77.74
2018-12-24T08:39:33.258Z,77.23
2018-12-24T08:41:39.322Z,77.42
2018-12-24T08:43:50.863Z,77.71
2018-12-24T08:45:56.988Z,77.11
2018-12-24T08:48:05.292Z,77.37
2018-12-24T08:50:11.076Z,77.80
2018-12-24T08:52:17.146Z,76.99
2018-12-24T08:54:26.012Z,76.89
2018-12-24T08:56:31.742Z,77.33
2018-12-24T08:58:56.435Z,77.29
2018-12-24T09:01:14.908Z,77.16
2018-12-24T09:03:20.550Z,76.99
2018-12-24T09:05:26.280Z,76.17
2018-12-24T09:07:31.890Z,76.71
2018-12-24T09:09:38.433Z,76.55
2018-12-24T09:11:44.164Z,76.32
2018-12-24T09:13:50.552Z,75.98
2018-12-24T09:15:56.122Z,76.10
2018-12-24T09:18:02.079Z,75.98
2018-12-24T09:20:09.033Z,75.38
2018-12-24T09:22:14.647Z,74.30
2018-12-24T09:24:20.432Z,74.37
2018-12-24T09:26:45.193Z,73.79
2018-12-24T09:28:50.925Z,72.97
2018-12-24T09:30:56.620Z,72.23
2018-12-24T09:33:02.286Z,72.21
2018-12-24T09:35:08.315Z,71.37
2018-12-24T09:37:13.988Z,71.71
2018-12-24T09:39:19.663Z,71.90
2018-12-24T09:41:44.442Z,71.98
2018-12-24T09:44:01.560Z,72.75
2018-12-24T09:46:07.357Z,73.22
2018-12-24T09:48:12.946Z,71.50
2018-12-24T09:50:18.533Z,70.60
2018-12-24T09:52:24.266Z,70.61
2018-12-24T09:54:51.212Z,69.76
2018-12-24T09:57:09.024Z,69.38
2018-12-24T09:59:14.785Z,69.85
2018-12-24T10:01:20.417Z,69.32
2018-12-24T10:03:32.849Z,69.58
2018-12-24T10:05:41.144Z,68.60
2018-12-24T10:07:47.449Z,68.13
2018-12-24T10:10:17.687Z,68.05
2018-12-24T10:12:23.792Z,66.30
2018-12-24T10:14:48.790Z,65.53
2018-12-24T10:17:06.663Z,65.48
2018-12-24T10:19:13.178Z,64.80
2018-12-24T10:21:19.282Z,62.29
2018-12-24T10:23:24.950Z,62.41
2018-12-24T10:25:30.743Z,62.13
2018-12-24T10:27:36.797Z,61.43
2018-12-24T10:29:42.493Z,61.43
2018-12-24T10:31:49.094Z,60.80
2018-12-24T10:33:54.839Z,61.33
2018-12-24T10:36:00.881Z,59.89
2018-12-24T10:38:06.576Z,59.87
2018-12-24T10:40:31.785Z,60.54
2018-12-24T10:42:37.726Z,60.11
2018-12-24T10:44:43.388Z,60.39
2018-12-24T10:49:20.333Z,60.97
2018-12-24T10:51:37.809Z,59.07
2018-12-24T10:53:44.161Z,59.07
2018-12-24T10:55:49.875Z,59.57
2018-12-24T10:57:55.566Z,59.41
2018-12-24T11:00:20.204Z,59.36
2018-12-24T11:02:26.147Z,59.15
2018-12-24T11:04:31.894Z,58.62
2018-12-24T11:06:37.562Z,59.17
2018-12-24T11:08:43.206Z,59.82
2018-12-24T11:10:48.924Z,59.45
2018-12-24T11:12:54.717Z,59.41
2018-12-24T11:15:00.368Z,58.72
2018-12-24T11:17:06.049Z,58.24
2018-12-24T11:19:11.702Z,58.51
2018-12-24T11:21:17.576Z,58.23
2018-12-24T11:23:42.328Z,57.90
2018-12-24T11:25:48.385Z,57.96
2018-12-24T11:27:54.012Z,58.73
2018-12-24T11:30:00.059Z,58.42
2018-12-24T11:32:05.662Z,58.41
2018-12-24T11:34:11.297Z,58.69
2018-12-24T11:36:17.611Z,58.87
2018-12-24T11:38:44.665Z,58.68
2018-12-24T11:40:50.397Z,59.03
2018-12-24T11:42:56.524Z,58.71
2018-12-24T11:45:02.455Z,58.73
2018-12-24T11:47:08.121Z,59.31
2018-12-24T11:49:13.843Z,58.64
2018-12-24T11:51:19.472Z,58.41
2018-12-24T11:53:25.285Z,58.42
2018-12-24T11:55:31.014Z,59.36
2018-12-24T11:57:36.749Z,58.94
2018-12-24T11:59:43.085Z,59.67
2018-12-24T12:01:49.240Z,60.09
2018-12-24T12:03:55.249Z,59.30
2018-12-24T12:06:01.384Z,58.77
2018-12-24T12:08:07.397Z,59.59
2018-12-24T12:10:32.759Z,59.63
2018-12-24T12:12:38.893Z,59.55
2018-12-24T12:14:45.519Z,59.09
2018-12-24T12:16:52.012Z,59.36
2018-12-24T12:19:17.226Z,59.17
2018-12-24T12:21:26.323Z,59.27
2018-12-24T12:23:32.165Z,58.70
2018-12-24T12:25:38.245Z,58.86
2018-12-24T12:27:44.982Z,58.88
2018-12-24T12:32:28.464Z,57.84
2018-12-24T12:34:45.549Z,57.41
2018-12-24T12:36:55.482Z,57.23
2018-12-24T12:39:03.349Z,57.54
2018-12-24T12:41:33.445Z,57.47
2018-12-24T12:44:41.107Z,58.10
2018-12-24T12:46:48.149Z,58.30
2018-12-24T12:51:31.369Z,58.12
2018-12-24T12:53:49.830Z,57.94
2018-12-24T12:56:01.011Z,57.29
2018-12-24T12:58:09.913Z,57.56
2018-12-24T13:00:17.408Z,58.00
2018-12-24T13:02:45.754Z,58.00
2018-12-24T13:05:09.240Z,57.96
2018-12-24T13:07:42.020Z,57.82
2018-12-24T13:09:51.571Z,57.94
2018-12-24T13:12:00.286Z,57.84
2018-12-24T13:14:28.589Z,58.08
2018-12-24T13:16:40.798Z,57.70
2018-12-24T13:19:28.560Z,57.44
2018-12-24T13:27:17.099Z,57.97
2018-12-24T13:30:01.268Z,58.40
2018-12-24T13:32:42.101Z,58.05
2018-12-24T13:35:03.449Z,57.85
2018-12-24T13:37:36.172Z,57.75
2018-12-24T13:42:39.317Z,58.18
2018-12-24T13:45:27.151Z,58.32
2018-12-24T13:47:53.862Z,58.11
2018-12-24T13:50:41.512Z,58.27
2018-12-24T13:56:10.205Z,58.53
2018-12-24T13:58:27.538Z,58.76
2018-12-24T14:00:53.191Z,58.17
2018-12-24T14:02:59.358Z,58.76
2018-12-24T14:05:25.904Z,58.00
2018-12-24T14:07:48.843Z,57.89
2018-12-24T14:10:39.873Z,57.90
2018-12-24T14:12:53.813Z,58.18
2018-12-24T14:17:35.256Z,59.19
2018-12-24T14:19:56.038Z,59.64
2018-12-24T14:22:02.044Z,59.62
2018-12-24T14:24:35.221Z,58.98
2018-12-24T14:26:41.642Z,59.35
2018-12-24T14:29:18.496Z,60.02
2018-12-24T14:31:43.966Z,60.20
2018-12-24T14:34:02.122Z,59.89
2018-12-24T14:36:11.899Z,60.38
2018-12-24T14:38:45.911Z,60.72
2018-12-24T14:41:05.691Z,60.88
2018-12-24T14:43:26.100Z,61.21
2018-12-24T14:45:40.130Z,60.73
2018-12-24T14:47:49.955Z,61.00
2018-12-24T14:50:06.451Z,61.00
2018-12-24T14:52:22.096Z,61.21
2018-12-24T14:55:00.632Z,61.40
2018-12-24T14:59:58.350Z,61.65
2018-12-24T15:02:16.479Z,61.78
2018-12-24T15:04:27.871Z,62.05
2018-12-24T15:06:48.103Z,62.76
2018-12-24T15:09:23.051Z,62.64
2018-12-24T15:11:41.276Z,62.49
2018-12-24T15:13:51.585Z,62.82
2018-12-24T15:16:02.213Z,63.25
2018-12-24T15:18:13.518Z,62.73
2018-12-24T15:20:32.261Z,63.58
2018-12-24T15:22:37.931Z,63.36
2018-12-24T15:24:43.879Z,63.79
2018-12-24T15:26:50.530Z,64.65
2018-12-24T15:28:56.300Z,64.01
2018-12-24T15:31:03.075Z,63.87
2018-12-24T15:33:09.204Z,63.91
2018-12-24T15:35:14.798Z,64.43
2018-12-24T15:37:20.786Z,64.53
2018-12-24T15:39:26.865Z,64.32
2018-12-24T15:41:32.575Z,64.30
2018-12-24T15:43:38.485Z,64.71
2018-12-24T15:45:44.594Z,64.83
2018-12-24T15:47:50.313Z,64.61
2018-12-24T15:49:56.660Z,64.73
2018-12-24T15:52:02.766Z,65.09
2018-12-24T15:54:08.518Z,65.12
2018-12-24T15:56:14.203Z,65.91
2018-12-24T15:58:19.920Z,65.82
2018-12-24T16:00:25.825Z,66.20
2018-12-24T16:02:32.534Z,65.85
2018-12-24T16:04:38.895Z,66.11
2018-12-24T16:06:44.979Z,65.84
2018-12-24T16:08:50.745Z,66.33
2018-12-24T16:10:56.923Z,66.36
2018-12-24T16:13:02.635Z,66.53
2018-12-24T16:15:08.791Z,66.57
2018-12-24T16:17:14.813Z,66.68
2018-12-24T16:19:20.919Z,66.78
2018-12-24T16:21:27.469Z,66.64
2018-12-24T16:23:33.549Z,67.14
2018-12-24T16:25:39.247Z,67.40
2018-12-24T16:27:45.048Z,67.73
2018-12-24T16:29:51.719Z,67.93
2018-12-24T16:31:58.375Z,67.91
2018-12-24T16:34:05.004Z,68.16
2018-12-24T16:36:50.607Z,68.20
2018-12-24T16:39:09.567Z,68.42
2018-12-24T16:43:46.412Z,69.19
2018-12-24T16:45:52.120Z,69.71
2018-12-24T16:47:57.810Z,69.90
2018-12-24T16:50:03.636Z,70.01
2018-12-24T16:52:09.427Z,70.11
2018-12-24T16:54:15.324Z,70.10
2018-12-24T16:56:25.580Z,70.29
2018-12-24T16:58:31.256Z,70.21
2018-12-24T17:00:36.950Z,70.51
2018-12-24T17:03:01.663Z,70.84
2018-12-24T17:05:07.389Z,70.91
2018-12-24T17:07:32.518Z,71.09
2018-12-24T17:09:38.397Z,71.29
2018-12-24T17:11:46.700Z,71.71
2018-12-24T17:13:54.068Z,71.87
2018-12-24T17:16:00.768Z,72.21
2018-12-24T17:18:27.440Z,72.75
2018-12-24T17:20:36.255Z,72.85
2018-12-24T17:22:42.274Z,73.06
2018-12-24T17:24:50.454Z,73.21
2018-12-24T17:26:56.837Z,73.22
2018-12-24T17:29:02.556Z,73.40
2018-12-24T17:31:10.161Z,73.91
2018-12-24T17:33:41.128Z,73.91
2018-12-24T17:35:46.988Z,73.92
2018-12-24T17:37:53.159Z,74.27
2018-12-24T17:39:59.140Z,74.31
2018-12-24T17:42:06.568Z,74.53
2018-12-24T17:44:31.682Z,74.63
2018-12-24T17:46:50.547Z,74.89
2018-12-24T17:48:45.246Z,75.21
2018-12-24T17:50:54.943Z,75.47
2018-12-24T17:53:00.805Z,76.05
2018-12-24T17:55:25.585Z,75.89
2018-12-24T17:57:36.898Z,76.02
2018-12-24T18:00:01.845Z,76.20
2018-12-24T18:02:08.184Z,76.26
2018-12-24T18:04:14.274Z,76.43
2018-12-24T18:06:39.146Z,76.44
2018-12-24T18:08:49.983Z,76.43
2018-12-24T18:10:58.641Z,76.48
2018-12-24T18:13:05.403Z,76.60
2018-12-24T18:15:49.197Z,76.80
2018-12-24T18:18:13.880Z,76.84
2018-12-24T18:23:06.630Z,77.37
2018-12-24T18:25:13.211Z,77.40
2018-12-24T18:27:22.554Z,77.45
2018-12-24T18:30:07.498Z,77.53
2018-12-24T18:32:13.216Z,77.51
2018-12-24T18:34:18.944Z,77.57
2018-12-24T18:36:24.697Z,77.74
2018-12-24T18:38:32.700Z,78.26
2018-12-24T18:40:57.435Z,78.14
2018-12-24T18:43:15.936Z,78.24
2018-12-24T18:45:16.284Z,78.21
2018-12-24T18:47:21.967Z,78.26
2018-12-24T18:49:29.380Z,78.41
2018-12-24T18:51:38.509Z,78.46
2018-12-24T18:56:22.578Z,78.66
2018-12-24T18:58:28.202Z,79.02
2018-12-24T19:00:33.836Z,78.96
2018-12-24T19:04:59.647Z,79.14
2018-12-24T19:07:05.395Z,79.20
2018-12-24T19:09:11.336Z,79.26
2018-12-24T19:11:19.741Z,79.29
2018-12-24T19:13:39.524Z,79.35
2018-12-24T19:15:36.081Z,79.44
2018-12-24T19:17:44.704Z,79.56
2018-12-24T19:22:58.755Z,79.74
2018-12-24T19:25:08.748Z,79.98
2018-12-24T19:27:19.557Z,79.83
2018-12-24T19:29:30.344Z,79.87
2018-12-24T19:31:55.140Z,79.90
2018-12-24T19:34:07.391Z,79.82
2018-12-24T19:36:13.052Z,79.79
2018-12-24T19:38:18.745Z,79.66
2018-12-24T19:40:24.676Z,79.63
2018-12-24T19:42:30.698Z,79.70
2018-12-24T19:44:37.090Z,79.73
2018-12-24T19:46:42.877Z,79.77
2018-12-24T19:48:50.634Z,79.75
2018-12-24T19:50:56.406Z,79.80
2018-12-24T19:53:05.081Z,79.92
2018-12-24T19:55:29.843Z,80.07
2018-12-24T19:57:35.631Z,80.12
2018-12-24T19:59:41.276Z,80.14
2018-12-24T20:06:10.973Z,79.79
2018-12-24T20:08:16.739Z,79.75
2018-12-24T20:10:22.595Z,79.66
2018-12-24T20:12:28.568Z,79.54
2018-12-24T20:14:34.202Z,79.52
2018-12-24T20:16:40.237Z,79.32
2018-12-24T20:18:46.271Z,79.18
2018-12-24T20:20:51.975Z,79.03
2018-12-24T20:23:17.251Z,78.70
2018-12-24T20:25:23.499Z,78.49
2018-12-24T20:27:29.259Z,78.07
2018-12-24T20:29:34.893Z,77.92
2018-12-24T20:31:40.606Z,77.83
2018-12-24T20:36:12.699Z,77.28
2018-12-24T20:38:18.690Z,77.05
2018-12-24T20:40:24.320Z,76.66
2018-12-24T20:42:49.019Z,76.06
2018-12-24T20:44:55.042Z,75.75
2018-12-24T20:47:00.670Z,75.87
2018-12-24T20:49:06.381Z,75.57
2018-12-24T20:51:16.276Z,75.47
2018-12-24T20:53:19.877Z,75.05
2018-12-24T20:55:26.468Z,74.88
2018-12-24T20:57:32.435Z,75.03
2018-12-24T20:59:38.409Z,75.36
2018-12-24T21:01:44.114Z,75.66
2018-12-24T21:03:49.811Z,75.64
2018-12-24T21:05:56.247Z,75.45
2018-12-24T21:08:04.373Z,75.47
2018-12-24T21:10:10.650Z,75.52
2018-12-24T21:12:16.751Z,75.56
2018-12-24T21:14:22.876Z,75.36
2018-12-24T21:16:29.977Z,75.50
2018-12-24T21:18:38.157Z,75.37
2018-12-24T21:20:44.572Z,74.72
2018-12-24T21:22:50.547Z,74.43
2018-12-24T21:24:56.237Z,74.92
2018-12-24T21:27:01.948Z,75.02
2018-12-24T21:29:07.672Z,74.96
2018-12-24T21:31:13.677Z,75.20
2018-12-24T21:33:38.358Z,74.92
2018-12-24T21:35:56.508Z,74.98
2018-12-24T21:38:02.508Z,74.82
2018-12-24T21:40:08.200Z,74.41
2018-12-24T21:42:14.702Z,74.51
2018-12-24T21:44:20.410Z,74.41
2018-12-24T21:46:45.194Z,74.40
2018-12-24T21:48:51.134Z,74.67
2018-12-24T21:51:15.825Z,74.61
2018-12-24T21:53:22.882Z,74.48
2018-12-24T21:55:28.536Z,74.41
2018-12-24T21:57:34.514Z,74.65
2018-12-24T21:59:40.460Z,74.70
2018-12-24T22:01:47.361Z,74.28
2018-12-24T22:03:53.050Z,73.91
2018-12-24T22:05:58.704Z,74.32
2018-12-24T22:08:04.347Z,74.83
2018-12-24T22:10:29.186Z,74.17
2018-12-24T22:12:34.899Z,73.97
2018-12-24T22:14:41.578Z,74.46
2018-12-24T22:17:09.596Z,74.53
2018-12-24T22:18:54.845Z,74.45
2018-12-24T22:21:01.684Z,74.73
2018-12-24T22:23:07.677Z,74.82
2018-12-24T22:25:13.752Z,74.48
2018-12-24T22:27:20.110Z,74.51
2018-12-24T22:29:25.997Z,74.58
2018-12-24T22:31:51.331Z,74.81
2018-12-24T22:34:16.035Z,74.82
2018-12-24T22:36:23.424Z,74.63
2018-12-24T22:38:29.062Z,74.65
2018-12-24T22:40:34.751Z,74.50
2018-12-24T22:42:59.747Z,74.71
2018-12-24T22:45:24.508Z,74.39
2018-12-24T22:47:30.647Z,74.18
2018-12-24T22:49:54.685Z,74.60
2018-12-24T22:52:00.408Z,74.40
2018-12-24T22:54:25.161Z,74.46
2018-12-24T22:56:30.853Z,74.22
2018-12-24T22:58:36.865Z,74.35
2018-12-24T23:00:47.020Z,74.13
2018-12-24T23:02:52.648Z,74.48
2018-12-24T23:04:59.036Z,74.24
2018-12-24T23:07:05.678Z,74.22
2018-12-24T23:09:11.327Z,73.92
2018-12-24T23:11:29.072Z,74.36
2018-12-24T23:13:34.731Z,74.20
2018-12-24T23:15:40.384Z,74.12
2018-12-24T23:17:46.062Z,73.81
2018-12-24T23:19:51.880Z,74.19
2018-12-24T23:21:58.739Z,74.28
2018-12-24T23:24:23.430Z,74.06
2018-12-24T23:26:29.047Z,74.11
2018-12-24T23:28:34.636Z,74.03
2018-12-24T23:30:40.597Z,74.00
2018-12-24T23:32:46.666Z,74.30
2018-12-24T23:34:55.128Z,74.51
2018-12-24T23:37:00.819Z,74.50
2018-12-24T23:39:07.808Z,74.65
2018-12-24T23:41:13.379Z,74.48
2018-12-24T23:43:38.370Z,74.36
2018-12-24T23:45:44.286Z,74.22
2018-12-24T23:47:50.279Z,73.83
2018-12-24T23:49:56.229Z,74.00
2018-12-24T23:52:04.347Z,74.18
2018-12-24T23:54:28.984Z,73.97
2018-12-24T23:56:34.694Z,73.86
2018-12-24T23:58:40.773Z,73.56
